createdAt,value
2022-10-13T00:01:47.430Z,16.16
2022-10-13T00:04:15.498Z,16.22
2022-10-13T00:06:43.141Z,16.15
2022-10-13T00:09:10.891Z,16.26
2022-10-13T00:11:38.562Z,16.20
2022-10-13T00:14:06.540Z,16.08
2022-10-13T00:16:35.582Z,15.77
2022-10-13T00:19:03.290Z,15.77
2022-10-13T00:21:30.981Z,15.98
2022-10-13T00:23:58.845Z,16.33
2022-10-13T00:26:27.331Z,15.93
2022-10-13T00:28:55.675Z,15.72
2022-10-13T00:31:25.561Z,16.01
2022-10-13T00:33:54.842Z,16.15
2022-10-13T00:36:23.621Z,16.14
2022-10-13T00:38:51.502Z,16.25
2022-10-13T00:41:20.027Z,16.20
2022-10-13T00:43:55.009Z,16.33
2022-10-13T00:46:23.581Z,16.33
2022-10-13T00:48:53.310Z,16.22
2022-10-13T00:51:25.327Z,16.00
2022-10-13T00:53:55.166Z,16.03
2022-10-13T00:56:24.810Z,16.07
2022-10-13T00:58:53.420Z,16.19
2022-10-13T01:01:21.106Z,16.17
2022-10-13T01:03:48.878Z,16.38
2022-10-13T01:06:23.270Z,16.29
2022-10-13T01:08:54.629Z,16.33
2022-10-13T01:11:37.625Z,16.28
2022-10-13T01:14:18.046Z,16.25
2022-10-13T01:16:56.717Z,16.32
2022-10-13T01:19:39.501Z,16.22
2022-10-13T01:22:21.389Z,16.27
2022-10-13T01:24:57.394Z,16.48
2022-10-13T01:27:51.237Z,16.20
2022-10-13T01:30:20.921Z,16.15
2022-10-13T01:33:12.906Z,16.15
2022-10-13T01:35:48.830Z,16.17
2022-10-13T01:38:27.033Z,16.14
2022-10-13T01:41:01.793Z,16.06
2022-10-13T01:43:36.502Z,15.89
2022-10-13T01:46:09.906Z,15.82
2022-10-13T01:48:40.425Z,15.83
2022-10-13T01:51:11.071Z,15.84
2022-10-13T01:53:39.617Z,15.83
2022-10-13T01:56:07.849Z,15.83
2022-10-13T01:58:37.581Z,15.70
2022-10-13T02:01:20.954Z,15.56
2022-10-13T02:03:57.933Z,15.49
2022-10-13T02:06:30.447Z,15.49
2022-10-13T02:09:04.346Z,15.51
2022-10-13T02:11:32.559Z,15.50
2022-10-13T02:14:05.300Z,15.56
2022-10-13T02:16:39.806Z,15.83
2022-10-13T02:19:10.475Z,15.84
2022-10-13T02:21:39.363Z,15.81
2022-10-13T02:24:09.009Z,15.77
2022-10-13T02:26:38.072Z,15.61
2022-10-13T02:29:10.504Z,15.72
2022-10-13T02:31:41.030Z,15.65
2022-10-13T02:34:09.444Z,15.64
2022-10-13T02:36:39.027Z,15.64
2022-10-13T02:39:08.166Z,15.71
2022-10-13T02:41:36.012Z,15.42
2022-10-13T02:44:03.837Z,15.45
2022-10-13T02:46:31.535Z,15.39
2022-10-13T02:49:00.682Z,15.48
2022-10-13T02:51:28.566Z,15.36
2022-10-13T02:53:56.231Z,15.51
2022-10-13T02:56:23.892Z,15.51
2022-10-13T02:58:51.801Z,15.47
2022-10-13T03:01:19.541Z,15.43
2022-10-13T03:03:47.189Z,15.58
2022-10-13T03:06:16.319Z,15.42
2022-10-13T03:08:44.026Z,15.52
2022-10-13T03:11:11.735Z,15.60
2022-10-13T03:13:39.565Z,15.53
2022-10-13T03:16:07.723Z,15.52
2022-10-13T03:18:35.876Z,15.50
2022-10-13T03:21:06.408Z,15.47
2022-10-13T03:23:35.550Z,15.54
2022-10-13T03:26:04.378Z,15.50
2022-10-13T03:28:32.539Z,15.54
2022-10-13T03:31:04.438Z,15.54
2022-10-13T03:33:32.150Z,15.32
2022-10-13T03:36:01.326Z,15.48
2022-10-13T03:38:29.654Z,15.51
2022-10-13T03:40:59.010Z,15.59
2022-10-13T03:43:26.746Z,15.59
2022-10-13T03:45:57.798Z,15.60
2022-10-13T03:48:25.871Z,15.69
2022-10-13T03:50:53.646Z,15.80
2022-10-13T03:53:22.008Z,15.86
2022-10-13T03:55:51.165Z,15.76
2022-10-13T03:58:21.062Z,15.76
2022-10-13T04:00:49.297Z,15.78
2022-10-13T04:03:17.881Z,15.81
2022-10-13T04:05:45.651Z,15.86
2022-10-13T04:08:13.737Z,15.76
2022-10-13T04:10:41.880Z,15.84
2022-10-13T04:13:09.688Z,15.83
2022-10-13T04:15:39.395Z,15.75
2022-10-13T04:18:08.925Z,15.59
2022-10-13T04:20:39.142Z,15.49
2022-10-13T04:23:07.306Z,15.47
2022-10-13T04:25:36.393Z,15.55
2022-10-13T04:28:04.715Z,15.57
2022-10-13T04:30:33.793Z,15.59
2022-10-13T04:33:02.861Z,15.51
2022-10-13T04:35:30.878Z,15.47
2022-10-13T04:37:58.632Z,15.69
2022-10-13T04:40:26.746Z,15.78
2022-10-13T04:42:54.441Z,15.77
2022-10-13T04:45:22.183Z,15.65
2022-10-13T04:47:49.856Z,15.67
2022-10-13T04:50:19.199Z,15.80
2022-10-13T04:52:46.894Z,15.94
2022-10-13T04:55:14.679Z,16.03
2022-10-13T04:57:42.354Z,16.09
2022-10-13T05:00:11.663Z,16.17
2022-10-13T05:02:39.479Z,16.19
2022-10-13T05:05:08.323Z,16.00
2022-10-13T05:07:37.363Z,16.05
2022-10-13T05:10:05.889Z,16.08
2022-10-13T05:12:33.822Z,15.94
2022-10-13T05:15:01.498Z,16.02
2022-10-13T05:17:35.065Z,16.25
2022-10-13T05:20:03.488Z,16.45
2022-10-13T05:22:31.257Z,16.49
2022-10-13T05:25:00.263Z,16.53
2022-10-13T05:27:28.305Z,16.53
2022-10-13T05:29:56.069Z,16.45
2022-10-13T05:32:23.748Z,16.59
2022-10-13T05:34:51.597Z,16.64
2022-10-13T05:37:19.467Z,16.72
2022-10-13T05:39:48.973Z,16.47
2022-10-13T05:42:18.547Z,16.44
2022-10-13T05:44:46.558Z,16.54
2022-10-13T05:47:14.269Z,16.24
2022-10-13T05:49:42.079Z,16.47
2022-10-13T05:52:13.574Z,16.65
2022-10-13T05:54:44.465Z,16.69
2022-10-13T05:57:16.067Z,16.76
2022-10-13T05:59:50.515Z,16.78
2022-10-13T06:02:20.568Z,16.61
2022-10-13T06:04:52.823Z,16.71
2022-10-13T06:07:21.414Z,16.76
2022-10-13T06:09:49.624Z,16.67
2022-10-13T06:12:17.655Z,16.93
2022-10-13T06:14:47.195Z,16.86
2022-10-13T06:17:14.861Z,17.07
2022-10-13T06:19:42.690Z,17.00
2022-10-13T06:22:10.394Z,16.89
2022-10-13T06:24:38.354Z,16.96
2022-10-13T06:27:06.058Z,17.08
2022-10-13T06:29:34.006Z,17.05
2022-10-13T06:32:03.083Z,17.11
2022-10-13T06:34:30.936Z,16.91
2022-10-13T06:36:58.610Z,16.91
2022-10-13T06:39:26.449Z,16.83
2022-10-13T06:41:55.306Z,16.93
2022-10-13T06:44:23.123Z,16.91
2022-10-13T06:46:50.825Z,17.19
2022-10-13T06:49:21.027Z,17.12
2022-10-13T06:51:48.787Z,17.21
2022-10-13T06:54:16.918Z,17.14
2022-10-13T06:56:44.771Z,17.16
2022-10-13T06:59:12.795Z,17.05
2022-10-13T07:01:41.657Z,16.91
2022-10-13T07:04:09.618Z,17.18
2022-10-13T07:06:38.821Z,17.06
2022-10-13T07:09:07.102Z,16.78
2022-10-13T07:11:35.373Z,16.98
2022-10-13T07:14:03.547Z,17.11
2022-10-13T07:16:31.333Z,17.10
2022-10-13T07:18:59.014Z,17.10
2022-10-13T07:21:27.399Z,17.00
2022-10-13T07:23:56.547Z,16.90
2022-10-13T07:26:24.237Z,17.07
2022-10-13T07:28:52.043Z,17.20
2022-10-13T07:31:21.371Z,17.24
2022-10-13T07:33:51.001Z,17.18
2022-10-13T07:36:19.808Z,16.94
2022-10-13T07:38:47.809Z,17.11
2022-10-13T07:41:16.885Z,17.18
2022-10-13T07:43:44.699Z,17.18
2022-10-13T07:46:14.110Z,17.21
2022-10-13T07:48:42.013Z,17.14
2022-10-13T07:51:11.900Z,17.20
2022-10-13T07:53:40.120Z,17.31
2022-10-13T07:56:10.428Z,17.34
2022-10-13T07:58:41.415Z,17.12
2022-10-13T08:01:09.702Z,16.89
2022-10-13T08:06:11.067Z,17.09
2022-10-13T08:08:40.149Z,16.94
2022-10-13T08:11:10.636Z,17.29
2022-10-13T08:13:41.779Z,16.88
2022-10-13T08:16:10.635Z,17.09
2022-10-13T08:18:38.370Z,17.40
2022-10-13T08:23:54.259Z,17.68
2022-10-13T08:26:25.014Z,17.73
2022-10-13T08:31:42.405Z,17.68
2022-10-13T08:34:11.633Z,17.70
2022-10-13T08:36:39.962Z,17.69
2022-10-13T08:39:08.434Z,17.62
2022-10-13T08:41:39.565Z,17.77
2022-10-13T08:47:12.226Z,17.95
2022-10-13T08:49:42.031Z,17.89
2022-10-13T08:52:18.238Z,17.78
2022-10-13T08:54:46.425Z,17.58
2022-10-13T08:57:14.499Z,17.84
2022-10-13T08:59:43.658Z,17.87
2022-10-13T09:02:14.026Z,17.96
2022-10-13T09:04:46.572Z,17.93
2022-10-13T09:07:18.304Z,17.62
2022-10-13T09:09:46.263Z,17.80
2022-10-13T09:12:15.739Z,18.09
2022-10-13T09:14:58.612Z,18.25
2022-10-13T09:17:27.369Z,18.17
2022-10-13T09:20:01.154Z,18.09
2022-10-13T09:22:31.134Z,18.09
2022-10-13T09:25:19.617Z,18.14
2022-10-13T09:27:50.236Z,17.83
2022-10-13T09:30:38.510Z,18.04
2022-10-13T09:33:20.599Z,17.88
2022-10-13T09:35:50.428Z,17.93
2022-10-13T09:38:19.872Z,18.10
2022-10-13T09:40:59.797Z,18.32
2022-10-13T09:43:32.043Z,18.02
2022-10-13T09:46:03.580Z,18.17
2022-10-13T09:48:34.438Z,18.51
2022-10-13T09:51:02.779Z,18.39
2022-10-13T09:53:33.922Z,18.49
2022-10-13T09:56:20.219Z,18.48
2022-10-13T09:58:53.199Z,18.17
2022-10-13T10:01:26.640Z,18.15
2022-10-13T10:03:56.056Z,18.35
2022-10-13T10:06:27.694Z,18.26
2022-10-13T10:09:04.236Z,18.19
2022-10-13T10:11:38.987Z,18.12
2022-10-13T10:14:16.804Z,18.31
2022-10-13T10:16:50.578Z,18.57
2022-10-13T10:19:23.707Z,18.37
2022-10-13T10:22:03.941Z,18.39
2022-10-13T10:24:39.688Z,18.69
2022-10-13T10:27:16.275Z,18.45
2022-10-13T10:29:50.185Z,18.72
2022-10-13T10:32:28.863Z,18.80
2022-10-13T10:35:02.910Z,18.88
2022-10-13T10:37:43.924Z,18.72
2022-10-13T10:40:22.997Z,18.52
2022-10-13T10:43:04.158Z,18.48
2022-10-13T10:45:35.729Z,18.13
2022-10-13T10:48:14.219Z,18.04
2022-10-13T10:50:42.503Z,17.92
2022-10-13T10:53:18.563Z,18.16
2022-10-13T10:55:51.424Z,18.16
2022-10-13T10:58:28.594Z,17.75
2022-10-13T11:01:07.084Z,18.16
2022-10-13T11:03:44.675Z,18.34
2022-10-13T11:06:33.104Z,17.90
2022-10-13T11:09:01.623Z,17.85
2022-10-13T11:11:38.242Z,18.16
2022-10-13T11:14:34.447Z,18.28
2022-10-13T11:17:20.210Z,18.31
2022-10-13T11:19:51.384Z,18.37
2022-10-13T11:22:22.149Z,18.35
2022-10-13T11:25:05.214Z,18.38
2022-10-13T11:27:41.266Z,18.24
2022-10-13T11:30:43.919Z,18.45
2022-10-13T11:33:33.677Z,18.56
2022-10-13T11:36:36.353Z,18.51
2022-10-13T11:39:23.551Z,18.49
2022-10-13T11:42:03.682Z,18.40
2022-10-13T11:44:40.529Z,18.24
2022-10-13T11:47:19.197Z,18.30
2022-10-13T11:49:59.454Z,18.24
2022-10-13T11:52:43.690Z,17.85
2022-10-13T11:55:16.024Z,18.04
2022-10-13T11:57:43.801Z,18.16
2022-10-13T12:00:16.965Z,18.30
2022-10-13T12:02:52.695Z,18.38
2022-10-13T12:05:23.298Z,18.32
2022-10-13T12:07:55.233Z,18.35
2022-10-13T12:10:29.390Z,18.08
2022-10-13T12:12:58.330Z,18.12
2022-10-13T12:15:33.043Z,18.17
2022-10-13T12:18:01.022Z,18.19
2022-10-13T12:20:31.430Z,18.32
2022-10-13T12:23:00.697Z,18.22
2022-10-13T12:25:33.572Z,18.00
2022-10-13T12:28:01.840Z,18.41
2022-10-13T12:30:31.544Z,18.56
2022-10-13T12:33:00.725Z,18.60
2022-10-13T12:35:30.535Z,18.51
2022-10-13T12:38:02.465Z,18.54
2022-10-13T12:40:30.882Z,18.25
2022-10-13T12:42:58.985Z,18.27
2022-10-13T12:45:32.550Z,18.15
2022-10-13T12:48:00.333Z,18.24
2022-10-13T12:50:36.988Z,18.32
2022-10-13T12:53:13.000Z,18.42
2022-10-13T12:55:50.335Z,18.17
2022-10-13T12:58:22.737Z,18.29
2022-10-13T13:01:08.917Z,18.34
2022-10-13T13:03:38.858Z,18.39
2022-10-13T13:06:24.828Z,18.48
2022-10-13T13:09:25.459Z,18.42
2022-10-13T13:12:20.874Z,18.40
2022-10-13T13:14:49.737Z,18.60
2022-10-13T13:17:52.974Z,18.54
2022-10-13T13:20:22.541Z,18.88
2022-10-13T13:22:50.904Z,18.93
2022-10-13T13:25:20.370Z,19.02
2022-10-13T13:27:48.058Z,18.88
2022-10-13T13:30:17.622Z,19.03
2022-10-13T13:32:45.389Z,18.89
2022-10-13T13:35:13.239Z,18.86
2022-10-13T13:37:44.441Z,18.89
2022-10-13T13:40:17.245Z,18.87
2022-10-13T13:42:46.625Z,18.82
2022-10-13T13:45:14.938Z,18.84
2022-10-13T13:47:43.226Z,18.76
2022-10-13T13:50:17.690Z,18.73
2022-10-13T13:52:45.526Z,18.95
2022-10-13T13:55:13.305Z,19.05
2022-10-13T13:57:41.025Z,18.99
2022-10-13T14:00:12.849Z,19.08
2022-10-13T14:02:41.238Z,18.82
2022-10-13T14:05:09.470Z,18.91
2022-10-13T14:07:37.285Z,18.98
2022-10-13T14:10:05.926Z,18.88
2022-10-13T14:12:34.356Z,18.97
2022-10-13T14:15:02.346Z,19.11
2022-10-13T14:17:31.592Z,19.04
2022-10-13T14:19:59.490Z,18.79
2022-10-13T14:22:27.541Z,18.83
2022-10-13T14:24:55.387Z,19.03
2022-10-13T14:27:23.221Z,19.15
2022-10-13T14:29:51.018Z,19.14
2022-10-13T14:32:18.977Z,19.08
2022-10-13T14:34:48.463Z,19.26
2022-10-13T14:37:18.841Z,19.36
2022-10-13T14:39:48.616Z,19.45
2022-10-13T14:42:16.306Z,19.44
2022-10-13T14:44:44.042Z,19.26
2022-10-13T14:47:11.742Z,19.42
2022-10-13T14:49:39.482Z,19.51
2022-10-13T14:52:08.750Z,19.39
2022-10-13T14:54:39.009Z,19.34
2022-10-13T14:57:08.853Z,19.34
2022-10-13T14:59:36.562Z,19.47
2022-10-13T15:02:04.232Z,19.58
2022-10-13T15:04:32.019Z,19.44
2022-10-13T15:06:59.709Z,19.58
2022-10-13T15:09:38.955Z,19.62
2022-10-13T15:12:16.919Z,19.73
2022-10-13T15:14:44.674Z,19.86
2022-10-13T15:17:12.359Z,19.91
2022-10-13T15:19:40.033Z,19.77
2022-10-13T15:22:07.790Z,19.91
2022-10-13T15:24:36.886Z,19.89
2022-10-13T15:27:04.745Z,19.75
2022-10-13T15:29:32.613Z,19.97
2022-10-13T15:32:09.542Z,19.86
2022-10-13T15:34:39.434Z,19.79
2022-10-13T15:37:07.318Z,19.83
2022-10-13T15:39:36.481Z,19.92
2022-10-13T15:42:05.143Z,19.87
2022-10-13T15:44:57.442Z,19.98
2022-10-13T15:47:20.888Z,20.03
2022-10-13T15:49:48.539Z,19.98
2022-10-13T15:52:16.431Z,20.13
2022-10-13T15:54:45.548Z,20.10
2022-10-13T15:57:14.476Z,19.96
2022-10-13T15:59:42.268Z,19.86
2022-10-13T16:02:10.693Z,19.75
2022-10-13T16:04:38.438Z,19.84
2022-10-13T16:07:06.288Z,19.80
2022-10-13T16:09:34.093Z,19.93
2022-10-13T16:12:03.181Z,19.94
2022-10-13T16:14:31.040Z,20.08
2022-10-13T16:17:01.686Z,20.00
2022-10-13T16:19:29.414Z,20.08
2022-10-13T16:21:57.079Z,20.23
2022-10-13T16:24:24.819Z,20.32
2022-10-13T16:26:52.508Z,20.36
2022-10-13T16:29:21.605Z,20.33
2022-10-13T16:31:49.257Z,20.30
2022-10-13T16:34:17.112Z,20.23
2022-10-13T16:36:44.914Z,20.11
2022-10-13T16:39:12.730Z,20.26
2022-10-13T16:41:40.454Z,20.02
2022-10-13T16:44:08.116Z,19.74
2022-10-13T16:46:37.306Z,19.93
2022-10-13T16:49:05.050Z,20.15
2022-10-13T16:51:32.725Z,20.12
2022-10-13T16:54:04.266Z,19.97
2022-10-13T16:56:32.834Z,19.75
2022-10-13T16:59:01.926Z,20.01
2022-10-13T17:01:30.702Z,20.08
2022-10-13T17:04:01.586Z,19.97
2022-10-13T17:06:29.911Z,19.82
2022-10-13T17:08:58.873Z,19.88
2022-10-13T17:11:28.882Z,19.89
2022-10-13T17:13:57.720Z,19.97
2022-10-13T17:16:25.841Z,19.92
2022-10-13T17:18:53.806Z,19.94
2022-10-13T17:21:22.935Z,19.71
2022-10-13T17:23:51.142Z,19.81
2022-10-13T17:26:20.855Z,19.92
2022-10-13T17:28:48.732Z,19.72
2022-10-13T17:31:19.166Z,19.80
2022-10-13T17:33:48.085Z,19.65
2022-10-13T17:36:17.541Z,19.58
2022-10-13T17:38:48.936Z,19.60
2022-10-13T17:41:17.470Z,19.69
2022-10-13T17:43:45.358Z,19.85
2022-10-13T17:46:35.715Z,19.74
2022-10-13T17:49:03.262Z,19.65
2022-10-13T17:51:30.984Z,19.56
2022-10-13T17:54:01.351Z,19.62
2022-10-13T17:56:29.895Z,19.72
2022-10-13T17:58:57.794Z,19.75
2022-10-13T18:01:27.169Z,19.77
2022-10-13T18:03:56.311Z,19.78
2022-10-13T18:06:24.470Z,19.82
2022-10-13T18:08:52.194Z,19.83
2022-10-13T18:11:24.206Z,19.82
2022-10-13T18:13:53.063Z,19.77
2022-10-13T18:16:23.363Z,19.76
2022-10-13T18:18:52.181Z,19.64
2022-10-13T18:21:23.929Z,19.67
2022-10-13T18:23:51.618Z,19.60
2022-10-13T18:26:21.747Z,19.40
2022-10-13T18:28:51.354Z,19.55
2022-10-13T18:31:21.738Z,19.59
2022-10-13T18:33:49.906Z,19.62
2022-10-13T18:36:20.207Z,19.64
2022-10-13T18:38:48.095Z,19.63
2022-10-13T18:41:17.020Z,19.55
2022-10-13T18:43:46.156Z,19.59
2022-10-13T18:46:13.932Z,19.40
2022-10-13T18:48:41.879Z,19.46
2022-10-13T18:51:11.375Z,19.40
2022-10-13T18:53:40.711Z,19.10
2022-10-13T18:56:10.733Z,19.16
2022-10-13T18:58:38.877Z,19.21
2022-10-13T19:01:10.207Z,19.37
2022-10-13T19:03:40.409Z,19.43
2022-10-13T19:06:09.807Z,19.34
2022-10-13T19:08:38.282Z,19.42
2022-10-13T19:11:12.421Z,19.39
2022-10-13T19:13:40.637Z,19.27
2022-10-13T19:16:10.350Z,19.22
2022-10-13T19:18:38.517Z,19.34
2022-10-13T19:21:07.017Z,19.24
2022-10-13T19:23:34.780Z,19.28
2022-10-13T19:26:10.032Z,19.19
2022-10-13T19:28:42.185Z,19.36
2022-10-13T19:31:12.523Z,19.42
2022-10-13T19:33:44.811Z,19.44
2022-10-13T19:36:23.545Z,19.48
2022-10-13T19:38:51.748Z,19.39
2022-10-13T19:41:19.658Z,19.38
2022-10-13T19:43:47.420Z,19.39
2022-10-13T19:46:17.032Z,19.44
2022-10-13T19:48:45.181Z,19.48
2022-10-13T19:51:13.876Z,19.51
2022-10-13T19:53:42.240Z,19.56
2022-10-13T19:56:19.398Z,19.49
2022-10-13T19:58:47.083Z,19.37
2022-10-13T20:01:16.271Z,19.36
2022-10-13T20:03:44.039Z,19.45
2022-10-13T20:06:12.079Z,19.39
2022-10-13T20:08:40.292Z,19.41
2022-10-13T20:11:08.913Z,19.40
2022-10-13T20:13:36.992Z,19.47
2022-10-13T20:16:09.454Z,19.48
2022-10-13T20:18:38.649Z,19.52
2022-10-13T20:21:07.908Z,19.48
2022-10-13T20:23:35.860Z,19.51
2022-10-13T20:26:04.299Z,19.50
2022-10-13T20:28:32.574Z,19.49
2022-10-13T20:31:03.316Z,19.47
2022-10-13T20:33:31.276Z,19.47
2022-10-13T20:36:01.630Z,19.45
2022-10-13T20:38:30.356Z,19.44
2022-10-13T20:41:05.008Z,19.50
2022-10-13T20:43:32.802Z,19.35
2022-10-13T20:46:01.983Z,19.40
2022-10-13T20:48:45.583Z,19.09
2022-10-13T20:51:23.824Z,18.62
2022-10-13T20:53:51.739Z,18.64
2022-10-13T20:56:21.577Z,18.64
2022-10-13T20:58:49.820Z,18.83
2022-10-13T21:01:20.796Z,18.85
2022-10-13T21:03:52.641Z,19.00
2022-10-13T21:06:24.633Z,19.03
2022-10-13T21:08:52.605Z,18.86
2022-10-13T21:11:22.331Z,18.81
2022-10-13T21:13:50.984Z,18.95
2022-10-13T21:16:20.901Z,19.04
2022-10-13T21:18:50.224Z,19.04
2022-10-13T21:21:22.228Z,18.87
2022-10-13T21:23:50.528Z,18.80
2022-10-13T21:26:21.658Z,18.84
2022-10-13T21:28:50.648Z,18.84
2022-10-13T21:31:20.186Z,18.85
2022-10-13T21:33:47.984Z,18.87
2022-10-13T21:36:17.076Z,18.75
2022-10-13T21:38:47.660Z,18.86
2022-10-13T21:41:16.077Z,18.97
2022-10-13T21:43:43.833Z,18.99
2022-10-13T21:46:12.702Z,18.91
2022-10-13T21:48:40.842Z,18.90
2022-10-13T21:51:13.282Z,18.55
2022-10-13T21:53:41.453Z,18.60
2022-10-13T21:56:12.670Z,18.42
2022-10-13T21:58:40.666Z,18.50
2022-10-13T22:01:08.750Z,18.65
2022-10-13T22:03:36.744Z,18.72
2022-10-13T22:06:12.290Z,18.82
2022-10-13T22:08:45.675Z,18.79
2022-10-13T22:11:15.173Z,18.69
2022-10-13T22:13:42.968Z,18.78
2022-10-13T22:16:12.797Z,18.76
2022-10-13T22:18:40.506Z,18.62
2022-10-13T22:21:10.149Z,18.70
2022-10-13T22:23:37.989Z,18.68
2022-10-13T22:26:05.793Z,18.57
2022-10-13T22:28:37.263Z,18.44
2022-10-13T22:31:08.796Z,18.54
2022-10-13T22:33:38.149Z,18.53
2022-10-13T22:36:09.606Z,18.37
2022-10-13T22:38:37.364Z,18.62
2022-10-13T22:41:05.621Z,18.64
2022-10-13T22:43:35.349Z,18.68
2022-10-13T22:46:03.319Z,18.61
2022-10-13T22:48:31.037Z,18.43
2022-10-13T22:50:58.839Z,18.48
2022-10-13T22:53:26.513Z,18.28
2022-10-13T22:55:54.189Z,18.52
2022-10-13T22:58:21.921Z,18.61
2022-10-13T23:00:51.025Z,18.68
2022-10-13T23:03:18.954Z,18.67
2022-10-13T23:05:48.972Z,18.51
2022-10-13T23:08:16.891Z,18.40
2022-10-13T23:10:44.662Z,18.59
2022-10-13T23:13:12.326Z,18.56
2022-10-13T23:15:40.252Z,18.56
2022-10-13T23:18:09.261Z,18.52
2022-10-13T23:20:40.698Z,18.57
2022-10-13T23:23:08.417Z,18.59
2022-10-13T23:25:37.589Z,18.61
2022-10-13T23:28:05.537Z,18.65
2022-10-13T23:30:33.270Z,18.69
2022-10-13T23:33:00.974Z,18.50
2022-10-13T23:35:30.030Z,18.62
2022-10-13T23:37:57.719Z,18.46
2022-10-13T23:40:25.458Z,18.59
2022-10-13T23:42:53.134Z,18.58
2022-10-13T23:45:20.842Z,18.53
2022-10-13T23:47:48.570Z,18.41
2022-10-13T23:50:16.278Z,18.52
2022-10-13T23:52:45.330Z,18.59
2022-10-13T23:55:13.002Z,18.45
2022-10-13T23:57:40.689Z,18.45
